createdAt,value
2023-04-08T00:00:51.150Z,6.60
2023-04-08T00:03:19.072Z,6.93
2023-04-08T00:05:46.860Z,5.90
2023-04-08T00:08:14.162Z,6.23
2023-04-08T00:10:41.646Z,5.80
2023-04-08T00:13:09.099Z,5.60
2023-04-08T00:15:37.376Z,6.30
2023-04-08T00:18:04.823Z,6.13
2023-04-08T00:20:32.162Z,6.00
2023-04-08T00:22:59.417Z,5.50
2023-04-08T00:25:26.720Z,6.27
2023-04-08T00:27:54.002Z,6.03
2023-04-08T00:30:21.626Z,6.67
2023-04-08T00:32:48.878Z,6.60
2023-04-08T00:35:16.284Z,5.33
2023-04-08T00:37:43.595Z,5.87
2023-04-08T00:40:11.146Z,5.90
2023-04-08T00:42:38.611Z,5.90
2023-04-08T00:45:06.476Z,6.33
2023-04-08T00:47:35.831Z,6.03
2023-04-08T00:50:04.506Z,6.20
2023-04-08T00:52:31.829Z,6.80
2023-04-08T00:54:59.042Z,5.97
2023-04-08T00:57:26.299Z,6.27
2023-04-08T00:59:53.624Z,6.73
2023-04-08T01:02:35.916Z,6.83
2023-04-08T01:05:38.734Z,5.40
2023-04-08T01:08:08.575Z,5.93
2023-04-08T01:10:39.103Z,6.70
2023-04-08T01:13:12.064Z,6.90
2023-04-08T01:15:41.430Z,5.60
2023-04-08T01:18:12.560Z,6.10
2023-04-08T01:20:42.305Z,6.10
2023-04-08T01:23:35.814Z,6.30
2023-04-08T01:26:03.091Z,6.07
2023-04-08T01:28:31.527Z,6.00
2023-04-08T01:31:01.239Z,5.67
2023-04-08T01:33:29.743Z,6.47
2023-04-08T01:35:58.709Z,7.60
2023-04-08T01:38:29.735Z,7.50
2023-04-08T01:40:58.147Z,7.40
2023-04-08T01:43:26.741Z,7.23
2023-04-08T01:45:58.612Z,7.30
2023-04-08T01:48:26.787Z,6.67
2023-04-08T01:50:56.297Z,6.00
2023-04-08T01:53:23.991Z,6.90
2023-04-08T01:56:11.772Z,6.90
2023-04-08T01:58:43.426Z,6.33
2023-04-08T02:01:14.020Z,6.77
2023-04-08T02:03:44.516Z,7.00
2023-04-08T02:06:12.035Z,6.33
2023-04-08T02:08:39.551Z,6.73
2023-04-08T02:11:06.993Z,6.60
2023-04-08T02:13:34.596Z,6.53
2023-04-08T02:16:09.253Z,6.73
2023-04-08T02:18:39.211Z,6.40
2023-04-08T02:21:14.558Z,6.77
2023-04-08T02:23:46.474Z,6.60
2023-04-08T02:26:15.710Z,6.97
2023-04-08T02:28:43.373Z,7.40
2023-04-08T02:31:15.794Z,7.30
2023-04-08T02:33:43.460Z,6.87
2023-04-08T02:36:12.536Z,7.63
2023-04-08T02:38:39.804Z,6.10
2023-04-08T02:41:07.082Z,6.53
2023-04-08T02:43:34.469Z,7.00
2023-04-08T02:46:04.230Z,6.10
2023-04-08T02:48:31.951Z,6.87
2023-04-08T02:50:59.275Z,6.80
2023-04-08T02:53:26.591Z,6.80
2023-04-08T02:55:54.097Z,6.67
2023-04-08T02:58:21.403Z,7.27
2023-04-08T03:00:48.803Z,6.90
2023-04-08T03:03:16.479Z,6.47
2023-04-08T03:05:44.011Z,6.57
2023-04-08T03:08:11.244Z,6.83
2023-04-08T03:10:38.573Z,6.47
2023-04-08T03:13:05.926Z,6.73
2023-04-08T03:15:33.286Z,5.83
2023-04-08T03:18:00.721Z,6.43
2023-04-08T03:20:28.125Z,7.00
2023-04-08T03:22:55.375Z,6.43
2023-04-08T03:25:22.650Z,6.63
2023-04-08T03:27:49.865Z,6.50
2023-04-08T03:30:17.201Z,5.93
2023-04-08T03:32:44.630Z,7.33
2023-04-08T03:35:12.067Z,7.10
2023-04-08T03:37:39.442Z,5.93
2023-04-08T03:40:07.599Z,6.13
2023-04-08T03:42:35.256Z,6.70
2023-04-08T03:45:02.608Z,6.40
2023-04-08T03:47:30.799Z,6.90
2023-04-08T03:49:58.203Z,6.37
2023-04-08T03:52:25.868Z,6.90
2023-04-08T03:54:53.209Z,6.50
2023-04-08T03:57:20.605Z,6.10
2023-04-08T03:59:47.901Z,5.80
2023-04-08T04:02:15.294Z,6.20
2023-04-08T04:04:42.781Z,6.30
2023-04-08T04:07:10.156Z,6.27
2023-04-08T04:09:37.480Z,6.90
2023-04-08T04:12:04.874Z,6.40
2023-04-08T04:14:32.148Z,5.80
2023-04-08T04:16:59.373Z,6.37
2023-04-08T04:19:31.392Z,5.30
2023-04-08T04:21:58.712Z,5.73
2023-04-08T04:24:26.149Z,5.30
2023-04-08T04:26:53.392Z,6.00
2023-04-08T04:29:20.767Z,6.40
2023-04-08T04:31:48.034Z,5.97
2023-04-08T04:34:15.987Z,6.30
2023-04-08T04:36:43.879Z,7.90
2023-04-08T04:39:11.216Z,7.90
2023-04-08T04:41:40.681Z,8.27
2023-04-08T04:44:08.078Z,7.30
2023-04-08T04:46:35.414Z,9.10
2023-04-08T04:49:02.793Z,9.70
2023-04-08T04:51:33.238Z,8.87
2023-04-08T04:54:00.612Z,9.33
2023-04-08T04:56:27.890Z,9.53
2023-04-08T04:58:55.259Z,9.20
2023-04-08T05:01:22.524Z,9.90
2023-04-08T05:03:49.804Z,9.47
2023-04-08T05:06:17.095Z,9.30
2023-04-08T05:08:44.770Z,9.40
2023-04-08T05:11:12.661Z,8.37
2023-04-08T05:13:40.061Z,7.40
2023-04-08T05:16:07.863Z,6.43
2023-04-08T05:18:35.268Z,7.33
2023-04-08T05:21:03.185Z,7.93
2023-04-08T05:23:30.475Z,7.00
2023-04-08T05:25:57.844Z,7.10
2023-04-08T05:28:25.268Z,8.57
2023-04-08T05:30:53.810Z,7.50
2023-04-08T05:33:21.198Z,8.50
2023-04-08T05:35:48.548Z,8.10
2023-04-08T05:38:15.867Z,8.53
2023-04-08T05:40:43.148Z,9.10
2023-04-08T05:43:10.511Z,8.37
2023-04-08T05:45:37.951Z,8.30
2023-04-08T05:48:05.321Z,7.97
2023-04-08T05:50:34.935Z,8.60
2023-04-08T05:53:02.344Z,7.73
2023-04-08T05:55:29.555Z,8.17
2023-04-08T05:57:56.862Z,9.30
2023-04-08T06:00:24.139Z,8.83
2023-04-08T06:02:51.697Z,10.50
2023-04-08T06:05:19.340Z,10.10
2023-04-08T06:07:46.613Z,10.50
2023-04-08T06:10:14.050Z,9.67
2023-04-08T06:12:41.273Z,9.90
2023-04-08T06:15:09.701Z,10.90
2023-04-08T06:17:38.360Z,10.67
2023-04-08T06:20:06.988Z,11.90
2023-04-08T06:22:34.322Z,10.77
2023-04-08T06:25:01.679Z,10.70
2023-04-08T06:27:28.988Z,11.23
2023-04-08T06:29:56.303Z,11.97
2023-04-08T06:32:23.769Z,13.13
2023-04-08T06:34:51.077Z,12.10
2023-04-08T06:37:18.374Z,13.33
2023-04-08T06:39:45.693Z,13.53
2023-04-08T06:42:12.992Z,14.47
2023-04-08T06:44:40.346Z,14.57
2023-04-08T06:47:07.714Z,15.07
2023-04-08T06:49:35.069Z,13.20
2023-04-08T06:52:02.377Z,13.07
2023-04-08T06:54:29.606Z,13.87
2023-04-08T06:56:56.906Z,15.13
2023-04-08T06:59:24.212Z,12.70
2023-04-08T07:01:51.698Z,14.20
2023-04-08T07:04:20.410Z,14.83
2023-04-08T07:06:47.824Z,15.10
2023-04-08T07:09:15.086Z,13.87
2023-04-08T07:11:42.357Z,13.33
2023-04-08T07:14:10.899Z,14.10
2023-04-08T07:16:38.531Z,13.87
2023-04-08T07:19:05.865Z,13.30
2023-04-08T07:21:33.191Z,13.30
2023-04-08T07:24:01.276Z,13.20
2023-04-08T07:26:28.811Z,14.03
2023-04-08T07:28:56.126Z,14.40
2023-04-08T07:31:23.697Z,14.00
2023-04-08T07:33:51.004Z,13.97
2023-04-08T07:36:18.561Z,16.03
2023-04-08T07:38:46.148Z,14.40
2023-04-08T07:41:13.944Z,14.13
2023-04-08T07:43:41.385Z,14.87
2023-04-08T07:46:09.251Z,13.77
2023-04-08T07:48:36.900Z,14.40
2023-04-08T07:51:08.552Z,14.53
2023-04-08T07:53:38.967Z,14.20
2023-04-08T07:56:16.356Z,14.27
2023-04-08T07:58:44.098Z,14.13
2023-04-08T08:01:26.871Z,13.90
2023-04-08T08:03:55.515Z,15.13
2023-04-08T08:06:24.197Z,15.43
2023-04-08T08:08:52.496Z,16.27
2023-04-08T08:11:19.999Z,15.13
2023-04-08T08:13:47.391Z,15.07
2023-04-08T08:16:14.920Z,14.70
2023-04-08T08:18:42.351Z,15.63
2023-04-08T08:21:10.148Z,14.90
2023-04-08T08:23:37.915Z,14.37
2023-04-08T08:26:10.661Z,16.90
2023-04-08T08:28:39.522Z,17.10
2023-04-08T08:31:07.230Z,16.33
2023-04-08T08:33:34.611Z,15.50
2023-04-08T08:36:02.123Z,15.67
2023-04-08T08:38:29.477Z,16.67
2023-04-08T08:40:58.627Z,15.53
2023-04-08T08:43:26.505Z,15.80
2023-04-08T08:45:54.317Z,15.67
2023-04-08T08:48:21.785Z,18.00
2023-04-08T08:50:52.197Z,18.57
2023-04-08T08:53:20.784Z,16.70
2023-04-08T08:58:19.137Z,16.67
2023-04-08T09:00:46.541Z,15.37
2023-04-08T09:03:24.132Z,16.57
2023-04-08T09:06:02.343Z,16.13
2023-04-08T09:08:37.761Z,14.90
2023-04-08T09:11:20.424Z,14.60
2023-04-08T09:13:48.343Z,14.93
2023-04-08T09:16:18.334Z,15.00
2023-04-08T09:18:47.497Z,16.07
2023-04-08T09:21:17.204Z,15.87
2023-04-08T09:23:49.717Z,17.07
2023-04-08T09:26:18.527Z,17.77
2023-04-08T09:29:00.253Z,17.33
2023-04-08T09:31:34.228Z,16.93
2023-04-08T09:34:10.057Z,17.37
2023-04-08T09:36:37.917Z,17.10
2023-04-08T09:39:05.923Z,16.60
2023-04-08T09:41:35.753Z,16.93
2023-04-08T09:44:07.927Z,16.70
2023-04-08T09:46:50.484Z,17.43
2023-04-08T09:49:46.091Z,19.13
2023-04-08T09:52:33.463Z,17.03
2023-04-08T09:55:05.860Z,17.30
2023-04-08T09:57:51.349Z,18.60
2023-04-08T10:00:19.709Z,16.13
2023-04-08T10:03:00.537Z,17.00
2023-04-08T10:05:28.315Z,15.97
2023-04-08T10:07:57.843Z,16.03
2023-04-08T10:10:26.390Z,16.50
2023-04-08T10:12:53.850Z,18.63
2023-04-08T10:15:25.117Z,17.57
2023-04-08T10:18:19.385Z,16.40
2023-04-08T10:20:47.564Z,17.90
2023-04-08T10:23:18.751Z,17.80
2023-04-08T10:25:50.678Z,17.73
2023-04-08T10:28:18.323Z,19.20
2023-04-08T10:30:56.472Z,18.93
2023-04-08T10:33:29.627Z,20.80
2023-04-08T10:36:11.713Z,19.07
2023-04-08T10:38:42.750Z,18.93
2023-04-08T10:41:14.500Z,19.87
2023-04-08T10:43:41.930Z,19.47
2023-04-08T10:46:11.909Z,19.00
2023-04-08T10:48:39.319Z,19.30
2023-04-08T10:51:06.657Z,19.13
2023-04-08T10:53:35.827Z,19.23
2023-04-08T10:56:07.488Z,20.30
2023-04-08T10:58:48.760Z,20.60
2023-04-08T11:01:16.142Z,20.83
2023-04-08T11:03:43.923Z,19.27
2023-04-08T11:06:11.921Z,18.40
2023-04-08T11:08:39.153Z,19.10
2023-04-08T11:11:11.042Z,19.87
2023-04-08T11:13:48.434Z,19.57
2023-04-08T11:16:20.926Z,17.87
2023-04-08T11:18:48.472Z,16.47
2023-04-08T11:21:16.794Z,18.47
2023-04-08T11:23:44.141Z,19.03
2023-04-08T11:26:12.092Z,16.93
2023-04-08T11:28:40.407Z,17.40
2023-04-08T11:31:09.002Z,16.50
2023-04-08T11:33:36.476Z,16.90
2023-04-08T11:36:08.559Z,17.30
2023-04-08T11:38:41.495Z,17.20
2023-04-08T11:41:11.609Z,18.60
2023-04-08T11:43:41.009Z,16.10
2023-04-08T11:46:12.572Z,17.43
2023-04-08T11:48:40.048Z,18.53
2023-04-08T11:51:12.631Z,17.33
2023-04-08T11:53:40.051Z,17.17
2023-04-08T11:56:20.492Z,18.03
2023-04-08T11:58:48.001Z,17.87
2023-04-08T12:01:15.713Z,18.60
2023-04-08T12:04:15.579Z,17.80
2023-04-08T12:06:46.799Z,17.70
2023-04-08T12:09:14.647Z,18.70
2023-04-08T12:11:42.220Z,15.67
2023-04-08T12:14:09.797Z,17.17
2023-04-08T12:16:37.095Z,16.57
2023-04-08T12:19:04.338Z,17.07
2023-04-08T12:21:32.583Z,17.00
2023-04-08T12:23:59.877Z,16.70
2023-04-08T12:26:27.275Z,15.60
2023-04-08T12:28:54.455Z,16.50
2023-04-08T12:31:22.791Z,17.73
2023-04-08T12:33:50.785Z,16.57
2023-04-08T12:36:18.211Z,16.40
2023-04-08T12:38:46.057Z,16.33
2023-04-08T12:41:13.331Z,16.20
2023-04-08T12:43:40.706Z,17.23
2023-04-08T12:46:08.032Z,17.20
2023-04-08T12:48:35.408Z,16.80
2023-04-08T12:51:03.312Z,17.33
2023-04-08T12:53:30.690Z,17.63
2023-04-08T12:55:58.275Z,15.57
2023-04-08T12:58:25.821Z,16.70
2023-04-08T13:00:53.144Z,17.20
2023-04-08T13:03:20.615Z,16.97
2023-04-08T13:05:48.628Z,17.67
2023-04-08T13:08:16.864Z,16.73
2023-04-08T13:10:44.162Z,17.30
2023-04-08T13:13:14.247Z,16.33
2023-04-08T13:15:41.503Z,17.00
2023-04-08T13:18:08.918Z,17.23
2023-04-08T13:20:36.726Z,16.90
2023-04-08T13:23:04.203Z,17.13
2023-04-08T13:25:31.546Z,18.10
2023-04-08T13:27:58.830Z,17.90
2023-04-08T13:30:26.151Z,17.80
2023-04-08T13:32:53.408Z,15.90
2023-04-08T13:35:20.951Z,15.27
2023-04-08T13:37:48.153Z,16.40
2023-04-08T13:40:15.500Z,14.80
2023-04-08T13:42:43.064Z,15.93
2023-04-08T13:45:10.573Z,14.50
2023-04-08T13:47:38.872Z,15.53
2023-04-08T13:50:09.861Z,15.53
2023-04-08T13:52:37.175Z,14.27
2023-04-08T13:55:04.792Z,14.73
2023-04-08T13:57:32.187Z,14.30
2023-04-08T13:59:59.535Z,14.63
2023-04-08T14:02:27.055Z,13.83
2023-04-08T14:04:54.523Z,14.83
2023-04-08T14:07:21.812Z,16.30
2023-04-08T14:09:49.078Z,16.83
2023-04-08T14:12:16.350Z,15.17
2023-04-08T14:14:43.565Z,16.50
2023-04-08T14:17:10.933Z,15.77
2023-04-08T14:19:38.241Z,16.90
2023-04-08T14:22:05.487Z,16.53
2023-04-08T14:24:32.835Z,18.03
2023-04-08T14:27:00.108Z,18.50
2023-04-08T14:29:27.755Z,21.40
2023-04-08T14:31:55.052Z,22.53
2023-04-08T14:34:22.336Z,18.33
2023-04-08T14:36:49.665Z,15.90
2023-04-08T14:39:17.026Z,15.53
2023-04-08T14:41:44.593Z,16.20
2023-04-08T14:44:11.814Z,17.93
2023-04-08T14:46:39.741Z,15.60
2023-04-08T14:49:07.241Z,15.53
2023-04-08T14:51:34.562Z,16.10
2023-04-08T14:54:02.178Z,17.10
2023-04-08T14:56:29.561Z,16.20
2023-04-08T14:58:56.872Z,16.80
2023-04-08T15:01:24.146Z,15.90
2023-04-08T15:03:51.576Z,15.80
2023-04-08T15:06:20.873Z,17.70
2023-04-08T15:08:48.097Z,16.77
2023-04-08T15:11:15.539Z,17.03
2023-04-08T15:13:42.786Z,17.60
2023-04-08T15:16:10.169Z,16.03
2023-04-08T15:18:37.611Z,18.33
2023-04-08T15:21:05.314Z,17.97
2023-04-08T15:23:32.509Z,17.10
2023-04-08T15:26:00.127Z,18.37
2023-04-08T15:28:27.534Z,17.63
2023-04-08T15:30:55.022Z,18.33
2023-04-08T15:33:22.286Z,18.13
2023-04-08T15:35:49.609Z,17.90
2023-04-08T15:38:17.636Z,17.27
2023-04-08T15:40:47.457Z,18.13
2023-04-08T15:43:15.418Z,17.13
2023-04-08T15:45:44.631Z,19.67
2023-04-08T15:48:11.965Z,18.80
2023-04-08T15:50:39.289Z,18.83
2023-04-08T15:53:06.794Z,18.70
2023-04-08T15:55:41.052Z,17.60
2023-04-08T15:58:08.597Z,17.67
2023-04-08T16:00:36.113Z,17.30
2023-04-08T16:03:05.520Z,18.00
2023-04-08T16:05:35.918Z,17.30
2023-04-08T16:08:04.676Z,17.50
2023-04-08T16:10:32.024Z,17.57
2023-04-08T16:12:59.232Z,17.97
2023-04-08T16:15:26.741Z,16.93
2023-04-08T16:17:54.358Z,17.20
2023-04-08T16:20:21.802Z,18.83
2023-04-08T16:22:50.176Z,17.33
2023-04-08T16:25:17.842Z,17.13
2023-04-08T16:27:45.166Z,15.23
2023-04-08T16:30:12.611Z,17.00
2023-04-08T16:32:40.167Z,16.10
2023-04-08T16:35:07.887Z,15.87
2023-04-08T16:37:35.175Z,16.30
2023-04-08T16:40:03.664Z,15.43
2023-04-08T16:42:31.329Z,16.03
2023-04-08T16:44:59.718Z,14.23
2023-04-08T16:47:27.745Z,15.33
2023-04-08T16:49:55.212Z,14.57
2023-04-08T16:52:23.144Z,14.77
2023-04-08T16:54:50.542Z,15.93
2023-04-08T16:57:18.217Z,14.60
2023-04-08T16:59:45.414Z,16.33
2023-04-08T17:02:12.725Z,15.53
2023-04-08T17:04:40.849Z,16.23
2023-04-08T17:07:08.630Z,17.67
2023-04-08T17:09:36.375Z,19.30
2023-04-08T17:12:03.648Z,20.87
2023-04-08T17:14:31.273Z,19.70
2023-04-08T17:16:58.575Z,18.90
2023-04-08T17:19:25.777Z,20.20
2023-04-08T17:21:53.110Z,20.57
2023-04-08T17:24:21.106Z,20.10
2023-04-08T17:26:48.401Z,20.47
2023-04-08T17:29:15.620Z,19.43
2023-04-08T17:31:44.314Z,21.70
2023-04-08T17:34:11.655Z,19.70
2023-04-08T17:36:39.005Z,21.50
2023-04-08T17:39:06.350Z,20.43
2023-04-08T17:41:40.428Z,20.40
2023-04-08T17:44:08.684Z,21.20
2023-04-08T17:46:36.076Z,21.00
2023-04-08T17:49:03.329Z,23.10
2023-04-08T17:51:32.046Z,22.83
2023-04-08T17:53:59.453Z,23.50
2023-04-08T17:56:28.310Z,22.27
2023-04-08T17:58:55.531Z,24.90
2023-04-08T18:01:23.159Z,22.00
2023-04-08T18:03:51.985Z,21.77
2023-04-08T18:06:19.570Z,20.20
2023-04-08T18:08:46.848Z,29.53
2023-04-08T18:11:14.089Z,39.27
2023-04-08T18:13:41.504Z,38.57
2023-04-08T18:16:19.409Z,35.33
2023-04-08T18:18:47.344Z,36.10
2023-04-08T18:21:15.395Z,40.70
2023-04-08T18:23:42.610Z,35.90
2023-04-08T18:26:10.916Z,35.20
2023-04-08T18:28:38.202Z,25.33
2023-04-08T18:31:06.235Z,26.83
2023-04-08T18:33:33.685Z,27.37
2023-04-08T18:36:12.771Z,23.23
2023-04-08T18:38:41.283Z,21.87
2023-04-08T18:41:09.995Z,17.77
2023-04-08T18:43:37.371Z,18.70
2023-04-08T18:46:05.039Z,18.70
2023-04-08T18:48:33.232Z,16.37
2023-04-08T18:51:03.854Z,15.37
2023-04-08T18:53:31.307Z,16.77
2023-04-08T18:55:58.655Z,18.10
2023-04-08T18:58:27.346Z,16.97
2023-04-08T19:00:54.784Z,17.37
2023-04-08T19:03:22.386Z,15.00
2023-04-08T19:05:49.721Z,14.37
2023-04-08T19:08:16.935Z,13.37
2023-04-08T19:10:44.136Z,11.40
2023-04-08T19:13:11.387Z,10.17
2023-04-08T19:15:38.727Z,10.10
2023-04-08T19:18:06.102Z,13.10
2023-04-08T19:20:33.787Z,13.87
2023-04-08T19:23:01.061Z,17.07
2023-04-08T19:25:28.527Z,17.40
2023-04-08T19:27:56.315Z,17.70
2023-04-08T19:30:23.694Z,19.10
2023-04-08T19:32:51.804Z,17.30
2023-04-08T19:35:19.290Z,19.20
2023-04-08T19:37:46.549Z,18.40
2023-04-08T19:40:13.835Z,17.20
2023-04-08T19:42:41.123Z,17.27
2023-04-08T19:45:08.786Z,15.40
2023-04-08T19:47:36.546Z,15.23
2023-04-08T19:50:04.158Z,16.90
2023-04-08T19:52:31.795Z,17.60
2023-04-08T19:54:59.105Z,18.43
2023-04-08T19:57:26.439Z,17.87
2023-04-08T19:59:54.444Z,19.17
2023-04-08T20:02:22.272Z,16.13
2023-04-08T20:04:49.583Z,13.03
2023-04-08T20:07:16.798Z,13.37
2023-04-08T20:09:44.122Z,13.70
2023-04-08T20:12:11.430Z,13.87
2023-04-08T20:14:43.214Z,15.47
2023-04-08T20:17:11.358Z,13.00
2023-04-08T20:19:39.169Z,12.50
2023-04-08T20:22:06.654Z,11.90
2023-04-08T20:24:33.868Z,10.20
2023-04-08T20:27:01.510Z,11.93
2023-04-08T20:29:29.667Z,10.83
2023-04-08T20:31:56.992Z,10.93
2023-04-08T20:34:24.275Z,9.90
2023-04-08T20:36:52.941Z,9.30
2023-04-08T20:39:20.426Z,8.03
2023-04-08T20:41:48.306Z,10.20
2023-04-08T20:44:15.991Z,8.93
2023-04-08T20:46:43.391Z,9.93
2023-04-08T20:49:10.794Z,10.30
2023-04-08T20:51:37.982Z,12.20
2023-04-08T20:54:05.274Z,10.70
2023-04-08T20:56:32.595Z,12.37
2023-04-08T20:59:00.526Z,12.40
2023-04-08T21:01:27.970Z,11.93
2023-04-08T21:03:56.050Z,11.43
2023-04-08T21:06:23.504Z,13.20
2023-04-08T21:08:51.359Z,14.60
2023-04-08T21:11:19.085Z,16.67
2023-04-08T21:13:48.696Z,19.40
2023-04-08T21:16:16.652Z,18.90
2023-04-08T21:18:43.960Z,19.27
2023-04-08T21:21:11.461Z,19.67
2023-04-08T21:23:38.630Z,18.17
2023-04-08T21:26:12.149Z,16.97
2023-04-08T21:28:40.316Z,16.27
2023-04-08T21:31:09.019Z,15.20
2023-04-08T21:33:36.531Z,18.27
2023-04-08T21:36:04.171Z,19.03
2023-04-08T21:38:32.109Z,13.77
2023-04-08T21:40:59.698Z,13.30
2023-04-08T21:43:27.430Z,13.07
2023-04-08T21:45:54.734Z,14.53
2023-04-08T21:48:22.083Z,12.90
2023-04-08T21:50:49.308Z,12.27
2023-04-08T21:53:16.788Z,13.10
2023-04-08T21:55:43.990Z,15.47
2023-04-08T21:58:12.402Z,16.60
2023-04-08T22:00:39.850Z,18.40
2023-04-08T22:03:07.719Z,16.90
2023-04-08T22:05:35.358Z,13.57
2023-04-08T22:08:02.680Z,14.60
2023-04-08T22:10:29.915Z,15.07
2023-04-08T22:12:57.119Z,15.30
2023-04-08T22:15:24.314Z,11.53
2023-04-08T22:17:51.723Z,11.77
2023-04-08T22:20:19.008Z,11.10
2023-04-08T22:22:46.202Z,10.20
2023-04-08T22:25:13.551Z,10.63
2023-04-08T22:27:40.910Z,9.20
2023-04-08T22:30:08.695Z,9.93
2023-04-08T22:32:36.026Z,8.80
2023-04-08T22:35:03.413Z,9.83
2023-04-08T22:37:32.104Z,10.10
2023-04-08T22:40:03.743Z,10.27
2023-04-08T22:42:31.238Z,10.63
2023-04-08T22:44:58.490Z,11.10
2023-04-08T22:47:26.075Z,10.57
2023-04-08T22:49:53.260Z,10.47
2023-04-08T22:52:20.455Z,11.00
2023-04-08T22:54:47.790Z,10.43
2023-04-08T22:57:15.027Z,11.27
2023-04-08T22:59:42.266Z,11.07
2023-04-08T23:02:09.526Z,10.97
2023-04-08T23:04:36.741Z,10.43
2023-04-08T23:07:03.967Z,11.90
2023-04-08T23:09:31.425Z,10.03
2023-04-08T23:11:58.697Z,11.27
2023-04-08T23:14:25.960Z,10.30
2023-04-08T23:16:53.209Z,11.03
2023-04-08T23:19:20.653Z,10.30
2023-04-08T23:21:47.864Z,10.53
2023-04-08T23:24:15.312Z,12.00
2023-04-08T23:26:42.565Z,10.73
2023-04-08T23:29:10.660Z,10.80
2023-04-08T23:31:38.084Z,10.60
2023-04-08T23:34:05.371Z,10.23
2023-04-08T23:36:32.635Z,10.00
2023-04-08T23:38:59.798Z,10.50
2023-04-08T23:41:27.020Z,10.57
2023-04-08T23:43:54.216Z,9.10
2023-04-08T23:46:21.412Z,10.83
2023-04-08T23:48:48.994Z,9.33
2023-04-08T23:51:16.335Z,11.03
2023-04-08T23:53:43.564Z,9.80
2023-04-08T23:56:11.009Z,10.80
2023-04-08T23:58:38.281Z,10.73
